Terminal Aerodrome Forecast
Issued by NWS Cleveland, OH

Home | Current Version | Previous Version | Text Only | Print | Product List | Glossary On
Versions: 1 2 3 4 5 6 7 8 9 10 11 12 13 14 15 16 17 18 19 20 21 22 23 24 25 26 27 28 29 30
000
FTUS41 KCLE 062000 AAA
TAFCLE
TAF AMD
KCLE 062042Z 0621/0724 22012G20KT P6SM BKN200
     FM070000 20010KT P6SM SCT040 BKN150
      TEMPO 0702/0706 BKN040
     FM071500 21012G22KT P6SM OVC070
     FM071900 22015G25KT P6SM VCSH OVC035=

USA.gov is the U.S. government's official web portal to all federal, state and local government web resources and services.